Time;durP1;ratioP1;P1;durP2;ratioP2;P2;SDS_P1;SDS_P2;PMS_P1;PMS_P2;Temp;Humidity;BMP_temperature;BMP_pressure;BME280_temperature;BME280_humidity;BME280_pressure;Samples;Min_cycle;Max_cycle;Signal;HPM_P1;HPM_P2
2023/10/31 00:00:44;;;;;;;1.07;0.87;;;;;13.80;95384.00;;;;5073219;28;20231;-70
2023/10/31 00:03:34;;;;;;;1.10;1.00;;;;;14.30;95379.00;;;;5075940;28;20218;-69
2023/10/31 00:06:23;;;;;;;1.53;1.43;;;;;14.00;95387.00;;;;5077803;28;20207;-70
2023/10/31 00:09:12;;;;;;;1.93;1.70;;;;;13.90;95390.00;;;;5074615;28;20806;-69
2023/10/31 00:12:01;;;;;;;1.20;1.03;;;;;14.20;95385.00;;;;5077342;28;20196;-70
2023/10/31 00:14:51;;;;;;;1.60;1.37;;;;;14.10;95378.00;;;;5076095;28;20665;-70
2023/10/31 00:17:40;;;;;;;1.20;1.10;;;;;14.00;95363.00;;;;5074867;28;20203;-68
2023/10/31 00:20:30;;;;;;;1.03;0.93;;;;;13.90;95367.00;;;;5073159;28;20223;-69
2023/10/31 00:23:19;;;;;;;1.63;1.47;;;;;14.50;95373.00;;;;5080717;28;20215;-69
2023/10/31 00:26:09;;;;;;;1.50;1.40;;;;;13.90;95362.00;;;;5078273;28;20994;-70
2023/10/31 00:28:58;;;;;;;1.40;1.20;;;;;14.00;95365.00;;;;5074119;28;20570;-69
2023/10/31 00:31:49;;;;;;;1.63;1.33;;;;;14.40;95359.00;;;;5075483;28;20236;-72
2023/10/31 00:34:38;;;;;;;1.50;1.23;;;;;14.70;95354.00;;;;5074480;28;20253;-70
2023/10/31 00:37:27;;;;;;;1.67;1.30;;;;;14.80;95357.00;;;;5073399;28;20207;-70
2023/10/31 00:40:17;;;;;;;2.17;1.90;;;;;14.60;95358.00;;;;5076612;28;20212;-69
2023/10/31 00:43:06;;;;;;;1.40;1.20;;;;;14.60;95356.00;;;;5077980;28;20232;-70
2023/10/31 00:45:55;;;;;;;1.30;1.20;;;;;14.10;95344.00;;;;5073325;28;20211;-70
2023/10/31 00:48:45;;;;;;;2.87;2.43;;;;;14.30;95359.00;;;;5075602;28;20208;-69
2023/10/31 00:51:34;;;;;;;1.60;1.40;;;;;14.70;95368.00;;;;5076681;28;20680;-69
2023/10/31 00:54:24;;;;;;;1.67;1.43;;;;;14.00;95355.00;;;;5071859;28;20230;-71
2023/10/31 00:57:13;;;;;;;2.33;2.07;;;;;14.10;95363.00;;;;5081257;28;20204;-69
2023/10/31 01:00:02;;;;;;;1.43;1.23;;;;;14.60;95370.00;;;;5073130;28;20238;-70
2023/10/31 01:02:51;;;;;;;1.20;1.00;;;;;15.00;95362.00;;;;5073514;28;20231;-70
2023/10/31 01:05:42;;;;;;;1.43;1.13;;;;;15.30;95360.00;;;;5076093;28;20200;-69
2023/10/31 01:08:31;;;;;;;2.47;1.90;;;;;15.20;95347.00;;;;5076467;28;20589;-69
2023/10/31 01:11:20;;;;;;;1.70;1.60;;;;;15.10;95358.00;;;;5075008;28;20219;-70
2023/10/31 01:14:09;;;;;;;1.60;1.47;;;;;15.00;95363.00;;;;5078901;28;20192;-70
2023/10/31 01:16:58;;;;;;;1.47;1.27;;;;;14.30;95359.00;;;;5071426;28;20606;-70
2023/10/31 01:19:47;;;;;;;1.30;1.20;;;;;14.20;95375.00;;;;5075368;28;20251;-69
2023/10/31 01:22:37;;;;;;;1.87;1.50;;;;;14.40;95375.00;;;;5073889;28;20223;-70
2023/10/31 01:25:26;;;;;;;2.43;2.20;;;;;14.40;95379.00;;;;5073266;28;20222;-69
2023/10/31 01:28:15;;;;;;;2.30;1.97;;;;;14.40;95392.00;;;;5072170;28;20206;-71
2023/10/31 01:31:06;;;;;;;1.60;1.37;;;;;14.80;95399.00;;;;5075758;28;20234;-70
2023/10/31 01:33:55;;;;;;;1.43;1.33;;;;;14.60;95404.00;;;;5078407;28;20196;-72
2023/10/31 01:36:44;;;;;;;2.43;1.90;;;;;14.70;95405.00;;;;5073090;28;20192;-70
2023/10/31 01:39:34;;;;;;;1.70;1.37;;;;;14.70;95394.00;;;;5071321;28;20215;-70
2023/10/31 01:42:23;;;;;;;1.50;1.37;;;;;15.00;95402.00;;;;5075418;28;20228;-70
2023/10/31 01:45:13;;;;;;;3.37;2.53;;;;;15.40;95399.00;;;;5080742;28;20199;-69
2023/10/31 01:48:02;;;;;;;0.93;0.87;;;;;15.40;95398.00;;;;5072519;28;20196;-70
2023/10/31 01:50:51;;;;;;;1.40;1.27;;;;;15.40;95374.00;;;;5083932;28;20707;-70
2023/10/31 01:53:41;;;;;;;0.90;0.90;;;;;15.20;95382.00;;;;5071362;28;20606;-70
2023/10/31 01:56:31;;;;;;;2.73;2.30;;;;;15.30;95375.00;;;;5073009;28;20196;-70
2023/10/31 01:59:20;;;;;;;1.70;1.30;;;;;15.40;95379.00;;;;5071830;28;20202;-71
2023/10/31 02:02:09;;;;;;;1.03;0.93;;;;;14.90;95388.00;;;;5075169;28;20702;-70
2023/10/31 02:04:58;;;;;;;1.13;1.00;;;;;14.90;95378.00;;;;5079900;28;20196;-71
2023/10/31 02:07:48;;;;;;;0.80;0.80;;;;;14.30;95377.00;;;;5077903;28;20286;-70
2023/10/31 02:10:37;;;;;;;1.20;1.10;;;;;14.60;95386.00;;;;5078737;28;20233;-71
2023/10/31 02:13:27;;;;;;;1.07;1.00;;;;;14.80;95354.00;;;;5076184;28;20206;-69
2023/10/31 02:16:16;;;;;;;2.70;2.03;;;;;15.10;95341.00;;;;5071455;28;20211;-69
2023/10/31 02:19:05;;;;;;;1.20;0.93;;;;;14.90;95322.00;;;;5078579;28;20204;-70
2023/10/31 02:21:56;;;;;;;1.53;1.30;;;;;15.00;95336.00;;;;5083587;28;20199;-71
2023/10/31 02:24:45;;;;;;;1.60;1.50;;;;;15.10;95319.00;;;;5076116;28;20199;-70
2023/10/31 02:27:34;;;;;;;1.23;1.13;;;;;15.00;95313.00;;;;5074500;28;20192;-70
2023/10/31 02:30:24;;;;;;;1.40;1.30;;;;;15.00;95324.00;;;;5072017;28;20231;-70
2023/10/31 02:33:13;;;;;;;2.53;2.03;;;;;14.60;95328.00;;;;5073523;28;20882;-70
2023/10/31 02:36:02;;;;;;;1.47;1.30;;;;;14.70;95325.00;;;;5074925;28;20207;-70
2023/10/31 02:38:53;;;;;;;1.10;0.90;;;;;14.50;95329.00;;;;5075425;28;20199;-69
2023/10/31 02:41:42;;;;;;;1.57;1.33;;;;;14.80;95310.00;;;;5080569;28;20602;-69
2023/10/31 02:44:31;;;;;;;1.53;1.23;;;;;14.90;95289.00;;;;5074943;28;20224;-69
2023/10/31 02:47:20;;;;;;;2.43;1.97;;;;;15.10;95255.00;;;;5074558;28;20205;-71
2023/10/31 02:50:09;;;;;;;1.50;1.40;;;;;15.30;95237.00;;;;5081739;28;20223;-70
2023/10/31 02:52:58;;;;;;;1.20;1.10;;;;;15.30;95268.00;;;;5080048;28;20589;-69
2023/10/31 02:55:49;;;;;;;1.20;1.00;;;;;14.90;95266.00;;;;5078973;28;20208;-71
2023/10/31 02:58:38;;;;;;;2.20;1.80;;;;;14.80;95230.00;;;;5074371;28;20596;-70
2023/10/31 03:01:29;;;;;;;1.90;1.80;;;;;15.40;95198.00;;;;5076771;28;20229;-70
2023/10/31 03:04:18;;;;;;;2.50;1.77;;;;;15.20;95259.00;;;;5077497;28;20229;-70
2023/10/31 03:07:07;;;;;;;1.20;1.10;;;;;14.90;95303.00;;;;5079022;28;20203;-71
2023/10/31 03:09:56;;;;;;;1.57;1.33;;;;;14.30;95325.00;;;;5078395;28;20222;-71
2023/10/31 03:12:47;;;;;;;1.80;1.53;;;;;15.10;95295.00;;;;5079184;28;20586;-70
2023/10/31 03:15:36;;;;;;;0.80;0.80;;;;;15.30;95300.00;;;;5076051;28;20203;-70
2023/10/31 03:18:25;;;;;;;2.10;1.77;;;;;15.70;95288.00;;;;5080153;28;20699;-70
2023/10/31 03:21:14;;;;;;;1.93;1.73;;;;;15.60;95273.00;;;;5076465;28;20227;-69
2023/10/31 03:24:04;;;;;;;1.37;1.00;;;;;15.70;95273.00;;;;5080258;28;20220;-69
2023/10/31 03:26:53;;;;;;;1.77;1.53;;;;;15.70;95288.00;;;;5084597;28;20196;-70
2023/10/31 03:29:43;;;;;;;1.70;1.30;;;;;15.50;95296.00;;;;5074051;28;20207;-70
2023/10/31 03:32:32;;;;;;;1.53;1.30;;;;;15.60;95290.00;;;;5077512;28;20199;-70
2023/10/31 03:35:21;;;;;;;2.90;2.23;;;;;15.80;95286.00;;;;5081005;28;20210;-70
2023/10/31 03:38:10;;;;;;;1.70;1.30;;;;;15.90;95278.00;;;;5075183;28;20583;-70
2023/10/31 03:40:59;;;;;;;1.70;1.37;;;;;15.90;95275.00;;;;5077124;28;20303;-69
2023/10/31 03:43:48;;;;;;;1.83;1.40;;;;;16.00;95260.00;;;;5079895;28;20288;-70
2023/10/31 03:46:39;;;;;;;2.00;1.70;;;;;16.00;95282.00;;;;5074072;28;20207;-71
2023/10/31 03:49:28;;;;;;;2.53;2.33;;;;;16.00;95284.00;;;;5078360;28;20203;-69
2023/10/31 03:52:17;;;;;;;3.17;2.40;;;;;15.80;95280.00;;;;5079118;28;20222;-71
2023/10/31 03:55:06;;;;;;;1.30;1.20;;;;;15.80;95274.00;;;;5080357;28;20203;-70
2023/10/31 03:57:55;;;;;;;0.90;0.83;;;;;15.90;95273.00;;;;5075251;28;20200;-70
2023/10/31 04:00:44;;;;;;;2.17;1.57;;;;;16.00;95278.00;;;;5083697;28;20231;-70
2023/10/31 04:03:35;;;;;;;1.47;1.27;;;;;16.00;95278.00;;;;5082533;28;20223;-70
2023/10/31 04:06:24;;;;;;;2.80;2.17;;;;;16.10;95267.00;;;;5081533;28;20203;-70
2023/10/31 04:09:13;;;;;;;2.20;1.73;;;;;15.90;95272.00;;;;5076547;28;20919;-70
2023/10/31 04:12:02;;;;;;;1.37;1.20;;;;;16.10;95275.00;;;;5075206;28;20241;-70
2023/10/31 04:14:51;;;;;;;1.40;1.20;;;;;16.00;95288.00;;;;5076420;28;20192;-71
2023/10/31 04:17:40;;;;;;;1.17;0.90;;;;;16.00;95274.00;;;;5081092;28;20200;-69
2023/10/31 04:20:31;;;;;;;0.83;0.80;;;;;16.10;95274.00;;;;5077889;28;20223;-70
2023/10/31 04:23:20;;;;;;;2.73;2.23;;;;;16.20;95289.00;;;;5075219;28;20215;-70
2023/10/31 04:26:09;;;;;;;1.60;1.40;;;;;16.20;95292.00;;;;5081111;28;20200;-70
2023/10/31 04:28:58;;;;;;;1.57;1.40;;;;;16.30;95284.00;;;;5079601;28;20579;-70
2023/10/31 04:31:47;;;;;;;1.87;1.50;;;;;16.10;95291.00;;;;5083978;28;20223;-70
2023/10/31 04:34:36;;;;;;;2.13;1.67;;;;;16.10;95283.00;;;;5078783;28;20196;-68
2023/10/31 04:37:26;;;;;;;2.67;1.90;;;;;16.10;95286.00;;;;5074174;28;20203;-68
2023/10/31 04:40:15;;;;;;;2.33;1.77;;;;;16.10;95285.00;;;;5079465;28;20223;-68
2023/10/31 04:43:04;;;;;;;2.10;1.43;;;;;16.10;95280.00;;;;5074619;28;20196;-68
2023/10/31 04:45:53;;;;;;;1.80;1.40;;;;;16.20;95280.00;;;;5082564;28;20216;-67
2023/10/31 04:48:42;;;;;;;2.00;1.50;;;;;16.20;95266.00;;;;5070465;28;20208;-68
2023/10/31 04:51:34;;;;;;;1.40;1.30;;;;;15.90;95271.00;;;;5074960;28;20226;-68
2023/10/31 04:54:25;;;;;;;2.37;1.83;;;;;15.80;95270.00;;;;5073732;28;20210;-68
2023/10/31 04:57:14;;;;;;;2.47;1.87;;;;;16.00;95269.00;;;;5078180;28;20706;-68
2023/10/31 05:00:05;;;;;;;1.83;1.43;;;;;16.00;95270.00;;;;5075857;28;20216;-68
2023/10/31 05:02:56;;;;;;;1.67;1.33;;;;;16.10;95259.00;;;;5081037;28;20203;-68
2023/10/31 05:05:45;;;;;;;1.77;1.40;;;;;15.80;95261.00;;;;5076658;28;20219;-68
2023/10/31 05:08:34;;;;;;;4.27;3.10;;;;;15.70;95258.00;;;;5084922;28;20219;-67
2023/10/31 05:11:24;;;;;;;3.13;2.43;;;;;15.60;95280.00;;;;5071099;28;20301;-68
2023/10/31 05:14:13;;;;;;;2.20;1.73;;;;;15.70;95288.00;;;;5074983;28;20691;-67
2023/10/31 05:17:02;;;;;;;1.40;1.20;;;;;16.00;95298.00;;;;5071546;28;20594;-67
2023/10/31 05:19:52;;;;;;;1.57;1.37;;;;;16.10;95303.00;;;;5076796;28;20705;-68
2023/10/31 05:22:42;;;;;;;1.83;1.40;;;;;16.10;95296.00;;;;5069436;28;20584;-68
2023/10/31 05:25:31;;;;;;;0.83;0.83;;;;;16.10;95299.00;;;;5072683;28;20222;-68
2023/10/31 05:28:22;;;;;;;2.67;2.07;;;;;16.30;95312.00;;;;5080009;28;20210;-68
2023/10/31 05:31:13;;;;;;;1.70;1.37;;;;;16.30;95301.00;;;;5084120;28;20231;-68
2023/10/31 05:34:03;;;;;;;1.97;1.57;;;;;16.30;95304.00;;;;5078987;28;20187;-67
2023/10/31 05:36:52;;;;;;;2.23;1.70;;;;;16.30;95317.00;;;;5075947;28;20345;-68
2023/10/31 05:39:41;;;;;;;1.90;1.43;;;;;16.30;95327.00;;;;5071265;28;20211;-68
2023/10/31 05:42:30;;;;;;;1.83;1.40;;;;;16.10;95323.00;;;;5072083;28;20595;-68
2023/10/31 05:45:21;;;;;;;3.73;2.77;;;;;16.20;95348.00;;;;5077008;28;20718;-67
2023/10/31 05:48:10;;;;;;;2.20;1.70;;;;;16.30;95353.00;;;;5072939;28;20204;-68
2023/10/31 05:50:59;;;;;;;2.43;1.67;;;;;16.20;95363.00;;;;5071721;28;20223;-67
2023/10/31 05:53:50;;;;;;;1.37;1.17;;;;;16.30;95372.00;;;;5071812;28;20204;-68
2023/10/31 05:56:39;;;;;;;1.90;1.57;;;;;16.30;95374.00;;;;5069310;28;20203;-68
2023/10/31 05:59:28;;;;;;;2.33;2.00;;;;;16.30;95362.00;;;;5071933;28;20204;-67
2023/10/31 06:02:19;;;;;;;3.50;2.67;;;;;16.00;95359.00;;;;5072172;28;20576;-68
2023/10/31 06:05:10;;;;;;;2.00;1.57;;;;;16.10;95363.00;;;;5071973;28;20625;-67
2023/10/31 06:07:59;;;;;;;1.50;1.20;;;;;16.10;95351.00;;;;5077122;28;20195;-67
2023/10/31 06:10:48;;;;;;;1.53;1.30;;;;;16.30;95361.00;;;;5078782;28;20223;-67
2023/10/31 06:13:37;;;;;;;2.10;1.50;;;;;16.30;95353.00;;;;5071348;28;20196;-68
2023/10/31 06:16:26;;;;;;;2.80;2.27;;;;;16.30;95335.00;;;;5071100;28;20222;-68
2023/10/31 06:19:16;;;;;;;2.83;2.07;;;;;16.30;95338.00;;;;5079469;28;20204;-68
2023/10/31 06:22:05;;;;;;;1.67;1.23;;;;;16.00;95325.00;;;;5076300;28;20206;-67
2023/10/31 06:24:54;;;;;;;1.53;1.27;;;;;15.90;95339.00;;;;5078811;28;20235;-67
2023/10/31 06:27:43;;;;;;;2.57;1.70;;;;;16.00;95344.00;;;;5079317;28;20208;-67
2023/10/31 06:30:32;;;;;;;1.33;1.10;;;;;16.00;95349.00;;;;5083513;28;20242;-68
2023/10/31 06:33:21;;;;;;;2.37;1.87;;;;;16.20;95364.00;;;;5076755;28;20204;-68
2023/10/31 06:36:11;;;;;;;2.77;2.10;;;;;16.10;95370.00;;;;5068282;28;20195;-68
2023/10/31 06:39:00;;;;;;;2.43;1.67;;;;;15.60;95364.00;;;;5073409;28;20208;-68
2023/10/31 06:41:50;;;;;;;1.83;1.30;;;;;15.90;95354.00;;;;5074775;28;20231;-67
2023/10/31 06:44:39;;;;;;;1.77;1.40;;;;;15.70;95357.00;;;;5085926;28;20223;-68
2023/10/31 06:47:28;;;;;;;2.83;2.13;;;;;15.60;95360.00;;;;5078197;28;20202;-67
2023/10/31 06:50:17;;;;;;;3.77;2.63;;;;;16.10;95344.00;;;;5076411;28;20223;-68
2023/10/31 06:53:08;;;;;;;2.27;1.50;;;;;16.30;95339.00;;;;5074074;28;20192;-67
2023/10/31 06:55:57;;;;;;;1.90;1.47;;;;;16.30;95346.00;;;;5083443;28;20199;-68
2023/10/31 06:58:46;;;;;;;3.30;2.40;;;;;16.30;95367.00;;;;5077759;28;20204;-67
2023/10/31 07:01:35;;;;;;;4.07;2.73;;;;;16.40;95362.00;;;;5077700;28;20231;-67
2023/10/31 07:04:24;;;;;;;3.57;2.80;;;;;16.30;95374.00;;;;5073731;28;20208;-68
2023/10/31 07:07:13;;;;;;;1.53;1.30;;;;;16.30;95362.00;;;;5073467;28;20209;-67
2023/10/31 07:10:04;;;;;;;3.60;2.67;;;;;16.30;95352.00;;;;5074793;28;20700;-68
2023/10/31 07:12:53;;;;;;;1.53;1.20;;;;;16.30;95341.00;;;;5075051;28;20211;-68
2023/10/31 07:15:42;;;;;;;2.00;1.60;;;;;16.40;95341.00;;;;5074935;28;20200;-67
2023/10/31 07:18:31;;;;;;;4.20;3.20;;;;;16.30;95356.00;;;;5072065;28;20218;-67
2023/10/31 07:21:20;;;;;;;3.00;2.20;;;;;16.30;95372.00;;;;5079221;28;20250;-68
2023/10/31 07:24:10;;;;;;;3.00;2.00;;;;;16.20;95355.00;;;;5071219;28;20223;-67
2023/10/31 07:27:00;;;;;;;1.87;1.27;;;;;16.10;95347.00;;;;5076858;28;20195;-67
2023/10/31 07:29:49;;;;;;;2.20;1.50;;;;;15.90;95343.00;;;;5078764;28;20253;-67
2023/10/31 07:32:38;;;;;;;2.13;1.57;;;;;16.00;95357.00;;;;5077488;28;20200;-67
2023/10/31 07:35:28;;;;;;;2.73;2.03;;;;;16.10;95348.00;;;;5080243;28;20685;-68
2023/10/31 07:38:17;;;;;;;2.93;2.03;;;;;16.30;95355.00;;;;5069912;28;20205;-67
2023/10/31 07:41:06;;;;;;;3.07;2.37;;;;;16.30;95330.00;;;;5073852;28;20659;-67
2023/10/31 07:43:56;;;;;;;1.93;1.37;;;;;16.40;95340.00;;;;5071771;28;20195;-67
2023/10/31 07:46:45;;;;;;;3.17;2.10;;;;;16.40;95329.00;;;;5072325;28;20227;-68
2023/10/31 07:49:34;;;;;;;3.07;1.97;;;;;16.40;95332.00;;;;5082437;28;20219;-67
2023/10/31 07:52:23;;;;;;;3.43;2.57;;;;;16.10;95328.00;;;;5079952;28;20209;-67
2023/10/31 07:55:13;;;;;;;2.00;1.60;;;;;15.90;95342.00;;;;5080876;28;20192;-66
2023/10/31 07:58:03;;;;;;;1.87;1.50;;;;;15.90;95343.00;;;;5075447;28;20253;-66
2023/10/31 08:00:53;;;;;;;1.73;1.33;;;;;15.90;95337.00;;;;5080156;28;20219;-68
2023/10/31 08:03:42;;;;;;;1.60;1.30;;;;;16.20;95339.00;;;;5077301;28;20192;-67
2023/10/31 08:06:31;;;;;;;3.50;2.53;;;;;16.30;95342.00;;;;5079171;28;20230;-67
2023/10/31 08:09:20;;;;;;;2.27;1.70;;;;;16.50;95342.00;;;;5075508;28;20203;-68
2023/10/31 08:12:09;;;;;;;2.67;1.60;;;;;16.50;95339.00;;;;5080053;28;20199;-67
2023/10/31 08:14:59;;;;;;;2.27;1.60;;;;;16.60;95336.00;;;;5079913;28;20677;-67
2023/10/31 08:17:50;;;;;;;1.73;1.20;;;;;16.60;95327.00;;;;5081989;28;20676;-67
2023/10/31 08:20:39;;;;;;;2.00;1.50;;;;;16.70;95325.00;;;;5077964;28;20867;-67
2023/10/31 08:23:29;;;;;;;3.53;2.47;;;;;16.60;95329.00;;;;5078506;28;20668;-67
2023/10/31 08:26:18;;;;;;;3.37;2.57;;;;;16.50;95331.00;;;;5073020;28;20226;-67
2023/10/31 08:29:07;;;;;;;2.70;1.87;;;;;16.40;95326.00;;;;5078925;28;20199;-67
2023/10/31 08:31:56;;;;;;;1.67;1.27;;;;;16.40;95325.00;;;;5077121;28;20214;-68
2023/10/31 08:34:46;;;;;;;1.40;1.20;;;;;16.30;95332.00;;;;5075728;28;20222;-67
2023/10/31 08:37:35;;;;;;;1.50;1.27;;;;;16.20;95329.00;;;;5076525;28;20207;-67
2023/10/31 08:40:24;;;;;;;3.30;2.37;;;;;16.20;95333.00;;;;5077938;28;20238;-67
2023/10/31 08:43:14;;;;;;;1.90;1.43;;;;;16.40;95332.00;;;;5086127;28;20199;-66
2023/10/31 08:46:03;;;;;;;2.03;1.53;;;;;16.50;95326.00;;;;5077960;28;20227;-67
2023/10/31 08:48:52;;;;;;;2.33;1.60;;;;;16.50;95334.00;;;;5078543;28;20199;-67
2023/10/31 08:51:42;;;;;;;3.67;2.57;;;;;16.50;95344.00;;;;5079511;28;20223;-67
2023/10/31 08:54:31;;;;;;;2.87;2.13;;;;;16.40;95340.00;;;;5082954;28;20216;-67
2023/10/31 08:57:20;;;;;;;4.83;3.40;;;;;16.50;95337.00;;;;5076580;28;20206;-67
2023/10/31 09:00:10;;;;;;;1.90;1.40;;;;;16.40;95338.00;;;;5079916;28;20222;-68
2023/10/31 09:02:59;;;;;;;2.17;1.60;;;;;16.40;95342.00;;;;5082555;28;20200;-67
2023/10/31 09:05:48;;;;;;;2.30;1.63;;;;;16.20;95348.00;;;;5079039;28;20229;-67
2023/10/31 09:08:38;;;;;;;3.67;2.67;;;;;16.30;95364.00;;;;5077569;28;20202;-68
2023/10/31 09:11:27;;;;;;;3.57;2.63;;;;;16.40;95368.00;;;;5075881;28;20238;-67
2023/10/31 09:14:16;;;;;;;2.67;1.83;;;;;16.40;95375.00;;;;5091751;28;20203;-67
2023/10/31 09:17:06;;;;;;;2.60;1.77;;;;;16.50;95394.00;;;;5078371;28;20197;-66
2023/10/31 09:19:55;;;;;;;2.00;1.40;;;;;16.40;95417.00;;;;5079861;28;20235;-67
2023/10/31 09:22:44;;;;;;;1.60;1.23;;;;;16.20;95435.00;;;;5077519;28;20207;-67
2023/10/31 09:25:34;;;;;;;3.60;2.63;;;;;16.40;95463.00;;;;5081015;28;20207;-67
2023/10/31 09:28:23;;;;;;;3.63;2.57;;;;;16.10;95486.00;;;;5084165;28;20199;-66
2023/10/31 09:31:13;;;;;;;2.07;1.47;;;;;15.10;95557.00;;;;5081161;28;20618;-66
2023/10/31 09:34:03;;;;;;;2.27;1.57;;;;;14.20;95514.00;;;;5080134;28;20214;-66
2023/10/31 09:36:52;;;;;;;2.53;1.83;;;;;14.60;95492.00;;;;5075898;28;20191;-66
2023/10/31 09:39:41;;;;;;;1.17;0.87;;;;;14.90;95482.00;;;;5073719;28;20196;-66
2023/10/31 09:42:32;;;;;;;3.27;2.63;;;;;14.80;95468.00;;;;5074810;28;20577;-66
2023/10/31 09:45:21;;;;;;;3.03;2.50;;;;;14.60;95484.00;;;;5079435;28;20663;-68
2023/10/31 09:48:10;;;;;;;1.70;1.40;;;;;14.80;95518.00;;;;5080985;28;20200;-66
2023/10/31 09:51:00;;;;;;;1.37;1.20;;;;;14.60;95551.00;;;;5080494;28;20603;-67
2023/10/31 09:53:49;;;;;;;1.60;1.30;;;;;14.90;95562.00;;;;5076407;28;20219;-66
2023/10/31 09:56:38;;;;;;;2.13;1.80;;;;;14.90;95569.00;;;;5076226;28;20203;-65
2023/10/31 09:59:29;;;;;;;2.00;1.70;;;;;15.00;95594.00;;;;5076405;28;20207;-66
2023/10/31 10:02:18;;;;;;;2.00;1.57;;;;;14.90;95614.00;;;;5085248;28;20199;-66
2023/10/31 10:05:08;;;;;;;2.47;1.83;;;;;14.90;95634.00;;;;5084853;28;20633;-66
2023/10/31 10:07:57;;;;;;;1.50;1.23;;;;;14.80;95609.00;;;;5078939;28;20224;-66
2023/10/31 10:10:47;;;;;;;1.27;1.13;;;;;14.70;95623.00;;;;5081252;28;20250;-66
2023/10/31 10:13:36;;;;;;;1.47;1.03;;;;;14.60;95621.00;;;;5084962;28;20706;-66
2023/10/31 10:16:33;;;;;;;3.00;2.50;;;;;14.30;95643.00;;;;5085464;28;20212;-65
2023/10/31 10:19:23;;;;;;;2.90;2.20;;;;;14.40;95599.00;;;;5091619;28;20198;-66
2023/10/31 10:22:14;;;;;;;1.90;1.53;;;;;14.10;95552.00;;;;5083123;28;20200;-66
2023/10/31 10:25:05;;;;;;;0.90;0.73;;;;;13.80;95562.00;;;;5083002;28;20200;-66
2023/10/31 10:27:53;;;;;;;1.83;1.60;;;;;13.70;95558.00;;;;5078525;28;20220;-65
2023/10/31 10:30:42;;;;;;;1.53;1.30;;;;;12.90;95547.00;;;;5078332;28;20227;-67
2023/10/31 10:33:34;;;;;;;2.40;2.10;;;;;13.10;95540.00;;;;5083980;22;20728;-87
2023/10/31 10:36:25;;;;;;;2.97;2.47;;;;;13.10;95539.00;;;;5068672;28;20208;-88
2023/10/31 10:39:14;;;;;;;1.33;1.23;;;;;13.10;95544.00;;;;5070192;28;20200;-86
2023/10/31 10:42:03;;;;;;;1.87;1.43;;;;;13.10;95539.00;;;;5072897;28;20219;-86
2023/10/31 10:44:54;;;;;;;1.30;1.20;;;;;12.70;95547.00;;;;5073273;28;20577;-85
2023/10/31 10:47:47;;;;;;;1.33;1.20;;;;;12.70;95549.00;;;;5066560;28;20223;-87
2023/10/31 10:50:39;;;;;;;1.57;1.23;;;;;12.90;95558.00;;;;5076022;28;20212;-87
2023/10/31 10:53:35;;;;;;;2.43;2.23;;;;;12.50;95557.00;;;;5078614;28;20208;-86
2023/10/31 10:56:29;;;;;;;3.17;2.57;;;;;12.80;95534.00;;;;5069119;28;20600;-86
2023/10/31 10:59:21;;;;;;;2.03;1.70;;;;;12.40;95514.00;;;;5077190;28;20310;-86
2023/10/31 11:02:11;;;;;;;2.33;1.80;;;;;12.50;95458.00;;;;5075565;28;20191;-87
2023/10/31 11:05:01;;;;;;;2.13;1.73;;;;;12.40;95458.00;;;;5069153;28;20665;-87
2023/10/31 11:07:55;;;;;;;1.20;1.10;;;;;12.10;95439.00;;;;5067750;28;20224;-88
2023/10/31 11:10:46;;;;;;;1.63;1.37;;;;;12.70;95377.00;;;;5070760;28;20228;-88
2023/10/31 11:13:36;;;;;;;2.37;2.17;;;;;12.60;95388.00;;;;5077187;28;20203;-88
2023/10/31 11:16:30;;;;;;;3.23;2.63;;;;;12.60;95397.00;;;;5071007;28;20208;-87
2023/10/31 11:19:19;;;;;;;2.33;1.90;;;;;12.90;95399.00;;;;5068217;28;20196;-87
2023/10/31 11:22:08;;;;;;;2.20;1.80;;;;;13.10;95411.00;;;;5070729;28;20231;-88
2023/10/31 11:24:59;;;;;;;1.27;1.17;;;;;13.20;95416.00;;;;5067584;28;20203;-87
2023/10/31 11:27:48;;;;;;;1.53;1.30;;;;;13.00;95434.00;;;;5065560;28;20226;-89
2023/10/31 11:30:37;;;;;;;1.93;1.37;;;;;13.40;95433.00;;;;5072231;28;20207;-87
2023/10/31 11:33:28;;;;;;;2.50;2.10;;;;;13.30;95454.00;;;;5071909;28;20835;-87
2023/10/31 11:36:21;;;;;;;1.57;1.30;;;;;12.90;95475.00;;;;5074559;28;20277;-87
2023/10/31 11:39:14;;;;;;;1.90;1.50;;;;;13.30;95490.00;;;;5069357;28;20200;-89
2023/10/31 11:42:19;;;;;;;1.73;1.30;;;;;13.40;95526.00;;;;5066714;28;20219;-86
2023/10/31 11:45:09;;;;;;;1.40;1.30;;;;;13.40;95556.00;;;;5073201;28;20200;-87
2023/10/31 11:47:59;;;;;;;1.90;1.33;;;;;13.50;95571.00;;;;5096366;22;20234;-69
2023/10/31 11:50:48;;;;;;;2.60;1.70;;;;;13.60;95554.00;;;;5085640;28;20207;-69
2023/10/31 11:53:40;;;;;;;2.43;1.60;;;;;13.80;95547.00;;;;5088668;28;20223;-69
2023/10/31 11:56:29;;;;;;;5.60;3.63;;;;;13.80;95547.00;;;;5074612;28;20215;-69
2023/10/31 11:59:20;;;;;;;2.13;1.53;;;;;13.90;95566.00;;;;5082331;28;20187;-69
2023/10/31 12:02:15;;;;;;;2.77;1.83;;;;;13.80;95572.00;;;;5079203;28;20203;-69
2023/10/31 12:05:11;;;;;;;1.73;1.27;;;;;13.70;95552.00;;;;5081606;28;20609;-69
2023/10/31 12:08:00;;;;;;;1.47;1.10;;;;;13.50;95539.00;;;;5082244;28;20219;-69
2023/10/31 12:10:49;;;;;;;1.97;1.27;;;;;13.50;95517.00;;;;5077914;28;20784;-70
2023/10/31 12:13:39;;;;;;;2.80;1.67;;;;;13.50;95524.00;;;;5079824;28;20234;-69
2023/10/31 12:16:31;;;;;;;6.67;4.17;;;;;13.10;95536.00;;;;5072097;28;20548;-69
2023/10/31 12:19:22;;;;;;;4.17;2.57;;;;;13.00;95540.00;;;;5072034;28;20218;-69
2023/10/31 12:22:15;;;;;;;2.73;1.70;;;;;13.10;95548.00;;;;5077809;28;20204;-69
2023/10/31 12:25:05;;;;;;;2.90;2.07;;;;;13.00;95550.00;;;;5080316;28;20231;-68
2023/10/31 12:27:54;;;;;;;1.37;1.00;;;;;13.00;95560.00;;;;5072367;28;20265;-68
2023/10/31 12:30:46;;;;;;;2.00;1.43;;;;;12.70;95569.00;;;;5075264;28;20882;-69
2023/10/31 12:33:37;;;;;;;4.37;3.27;;;;;13.20;95589.00;;;;5074416;28;20224;-69
2023/10/31 12:36:26;;;;;;;5.27;3.27;;;;;13.10;95596.00;;;;5073486;28;20214;-68
2023/10/31 12:39:16;;;;;;;2.30;1.60;;;;;13.20;95585.00;;;;5086374;28;20206;-68
2023/10/31 12:42:06;;;;;;;3.60;2.13;;;;;13.30;95588.00;;;;5077602;28;20199;-68
2023/10/31 12:44:55;;;;;;;2.17;1.67;;;;;13.30;95596.00;;;;5074989;28;20226;-68
2023/10/31 12:47:44;;;;;;;11.33;7.10;;;;;13.40;95604.00;;;;5074764;28;20235;-68
2023/10/31 12:50:36;;;;;;;4.07;2.77;;;;;13.40;95611.00;;;;5087698;28;20198;-69
2023/10/31 12:53:25;;;;;;;5.30;3.13;;;;;13.30;95619.00;;;;5079248;28;20707;-69
2023/10/31 12:56:39;;;;;;;2.63;1.70;;;;;13.20;95636.00;;;;5085390;28;20230;-69
2023/10/31 12:59:28;;;;;;;3.33;2.13;;;;;13.20;95658.00;;;;5080878;28;20198;-69
2023/10/31 13:02:18;;;;;;;2.90;1.90;;;;;13.00;95672.00;;;;5079839;28;20229;-69
2023/10/31 13:05:12;;;;;;;2.33;1.73;;;;;13.00;95673.00;;;;5078295;28;20227;-68
2023/10/31 13:08:04;;;;;;;2.93;1.97;;;;;13.00;95663.00;;;;5082702;28;20283;-68
2023/10/31 13:10:54;;;;;;;2.80;2.03;;;;;13.10;95671.00;;;;5077700;28;20204;-69
2023/10/31 13:13:43;;;;;;;2.47;1.67;;;;;12.90;95654.00;;;;5073833;28;20219;-69
2023/10/31 13:16:33;;;;;;;5.20;3.47;;;;;12.90;95642.00;;;;5076299;28;20690;-70
2023/10/31 13:19:22;;;;;;;4.23;2.63;;;;;12.90;95609.00;;;;5078072;28;20198;-70
2023/10/31 13:22:11;;;;;;;2.90;1.90;;;;;12.50;95621.00;;;;5081129;28;20285;-70
2023/10/31 13:25:04;;;;;;;2.50;1.47;;;;;12.50;95614.00;;;;5080468;28;20215;-69
2023/10/31 13:27:54;;;;;;;2.50;1.70;;;;;12.50;95609.00;;;;5071832;28;20230;-69
2023/10/31 13:30:43;;;;;;;2.10;1.57;;;;;12.30;95605.00;;;;5074708;28;20211;-69
2023/10/31 13:33:32;;;;;;;4.37;3.07;;;;;12.30;95618.00;;;;5071864;28;20784;-69
2023/10/31 13:36:20;;;;;;;3.00;1.93;;;;;12.30;95638.00;;;;5076921;28;20576;-69
2023/10/31 13:39:09;;;;;;;2.23;1.70;;;;;12.20;95660.00;;;;5080969;28;20246;-68
2023/10/31 13:42:00;;;;;;;1.93;1.33;;;;;11.90;95689.00;;;;5078930;28;20220;-69
2023/10/31 13:44:49;;;;;;;2.10;1.37;;;;;12.10;95717.00;;;;5076336;28;20834;-69
2023/10/31 13:47:38;;;;;;;2.93;2.30;;;;;12.10;95735.00;;;;5074016;28;20196;-69
2023/10/31 13:50:27;;;;;;;4.90;2.93;;;;;12.20;95745.00;;;;5074120;28;20222;-69
2023/10/31 13:53:16;;;;;;;2.57;1.80;;;;;12.10;95757.00;;;;5076527;28;20965;-69
2023/10/31 13:56:06;;;;;;;2.03;1.33;;;;;12.20;95768.00;;;;5076687;28;20585;-69
2023/10/31 13:58:56;;;;;;;2.43;1.70;;;;;12.00;95784.00;;;;5081366;28;20201;-69
2023/10/31 14:01:47;;;;;;;2.40;1.67;;;;;12.10;95783.00;;;;5074900;28;20258;-69
2023/10/31 14:04:36;;;;;;;3.63;2.60;;;;;12.20;95782.00;;;;5073375;28;20230;-68
2023/10/31 14:07:25;;;;;;;3.53;2.50;;;;;12.10;95781.00;;;;5073216;28;20257;-69
2023/10/31 14:10:14;;;;;;;1.83;1.30;;;;;11.80;95779.00;;;;5077137;28;20277;-69